Aswan, Egypt

9:40 AM EET on September 01, 2014 (GMT +0200)
Aswan International | Change Station
CLOSE
Current Station
Airport
Location: Aswan,
Elevation: 636 ft
Nearby Weather Stations

Elev 636 ft 23.96 °N, 32.82 °E | Updated 40 minutes ago

Clear
Clear
93 °F
Feels Like 93 °F
N
14
Wind Variable Wind from North

Today
High -- | Low -- °F
--% Chance of Precip.
Yesterday
High -- | Low -- °F
Precip. -- in
5:30 AM 6:07 PM
Waxing Crescent, 38% visible
Pressure 29.80 in
Visibility -9999.0 miles
Clouds
Dew Point 50 °F
Humidity 23%
Rainfall 0.00 in
Snow Depth Not available.
UV Not available.
Pollen Not available.
Air Quality Not available.
Flu Activity Not available.
METAR HESN 010700Z 01012KT CAVOK 34/10 Q1009 NOSIG

More Conditions Fewer Conditions

Pressure 29.80 in
Visibility -9999.0 miles
Clouds
Dew Point 50 °F
Humidity 23%
Rainfall 0.00 in
Snow Depth Not available.
UV Not available.
Pollen Not available.
Air Quality Not available.
Flu Activity Not available.
METAR HESN 010700Z 01012KT CAVOK 34/10 Q1009 NOSIG

More Conditions Fewer Conditions

10-Day Weather Forecast

Almanac

Astronomy

Sep. 01, 2014 Rise Set
Actual Time 5:30 AM EET 6:07 PM EET
Civil Twilight 5:07 AM EET 6:30 PM EET
Nautical Twilight 4:40 AM EET 6:57 PM EET
Astronomical Twilight 4:12 AM EET 7:24 PM EET
Moon 11:13 AM EET 10:35 PM EET
Length of Visible Light 13h 22m
Length of Day
12h 36m
Tomorrow will be 1m 21s shorter.
Waxing Crescent, 38% of the Moon is Illuminated
Today
Waxing Crescent
Sep 2
First Quarter
Sep 8
Full
Sep 15
Last Quarter
Sep 24
New

Yesterday's Extremes

Country Highs Country Lows

Community

WunderPhotos

Upload Photos

1,749,154 photos uploaded!

Nearby

Snow Depth

Not available.

Earthquake Activity

City Distance Mag. Time & Date
No recent earthquake activity has been reported nearby.
Minimum magnitude displayed is 2.5.

Coastal Water Temperatures

Place Temperature
No Stations Reporting

Nearby Weather Stations